sensor_id;sensor_type;location;lat;lon;timestamp;P1;durP1;ratioP1;P2;durP2;ratioP2
11139;SDS011;5624;49.388;11.350;2022-11-15T00:01:47;17.60;;;11.27;;
11139;SDS011;5624;49.388;11.350;2022-11-15T00:04:12;11.83;;;7.73;;
11139;SDS011;5624;49.388;11.350;2022-11-15T00:06:38;10.63;;;7.40;;
11139;SDS011;5624;49.388;11.350;2022-11-15T00:09:03;10.23;;;6.60;;
11139;SDS011;5624;49.388;11.350;2022-11-15T00:11:29;10.10;;;6.53;;
11139;SDS011;5624;49.388;11.350;2022-11-15T00:13:55;9.53;;;6.50;;
11139;SDS011;5624;49.388;11.350;2022-11-15T00:16:21;10.10;;;6.40;;
11139;SDS011;5624;49.388;11.350;2022-11-15T00:18:47;9.53;;;6.10;;
11139;SDS011;5624;49.388;11.350;2022-11-15T00:21:13;10.90;;;6.37;;
11139;SDS011;5624;49.388;11.350;2022-11-15T00:23:40;9.10;;;5.67;;
11139;SDS011;5624;49.388;11.350;2022-11-15T00:26:06;14.13;;;6.97;;
11139;SDS011;5624;49.388;11.350;2022-11-15T00:28:32;9.97;;;5.90;;
11139;SDS011;5624;49.388;11.350;2022-11-15T00:31:02;10.43;;;6.73;;
11139;SDS011;5624;49.388;11.350;2022-11-15T00:33:28;9.10;;;7.00;;
11139;SDS011;5624;49.388;11.350;2022-11-15T00:35:58;11.03;;;6.70;;
11139;SDS011;5624;49.388;11.350;2022-11-15T00:38:32;10.73;;;7.80;;
11139;SDS011;5624;49.388;11.350;2022-11-15T00:40:58;9.60;;;6.60;;
11139;SDS011;5624;49.388;11.350;2022-11-15T00:43:25;9.77;;;7.47;;
11139;SDS011;5624;49.388;11.350;2022-11-15T00:45:51;11.87;;;6.97;;
11139;SDS011;5624;49.388;11.350;2022-11-15T00:48:16;12.70;;;7.17;;
11139;SDS011;5624;49.388;11.350;2022-11-15T00:50:42;10.13;;;7.57;;
11139;SDS011;5624;49.388;11.350;2022-11-15T00:53:08;11.77;;;8.03;;
11139;SDS011;5624;49.388;11.350;2022-11-15T00:55:34;12.13;;;7.33;;
11139;SDS011;5624;49.388;11.350;2022-11-15T00:57:59;13.13;;;7.60;;
11139;SDS011;5624;49.388;11.350;2022-11-15T01:00:25;11.97;;;8.23;;
11139;SDS011;5624;49.388;11.350;2022-11-15T01:02:50;12.43;;;7.80;;
11139;SDS011;5624;49.388;11.350;2022-11-15T01:05:16;8.83;;;6.63;;
11139;SDS011;5624;49.388;11.350;2022-11-15T01:07:42;11.43;;;7.97;;
11139;SDS011;5624;49.388;11.350;2022-11-15T01:10:08;9.57;;;6.67;;
11139;SDS011;5624;49.388;11.350;2022-11-15T01:12:33;11.80;;;7.97;;
11139;SDS011;5624;49.388;11.350;2022-11-15T01:14:59;10.70;;;7.63;;
11139;SDS011;5624;49.388;11.350;2022-11-15T01:17:27;11.40;;;7.93;;
11139;SDS011;5624;49.388;11.350;2022-11-15T01:19:53;11.00;;;7.83;;
11139;SDS011;5624;49.388;11.350;2022-11-15T01:22:19;14.17;;;8.30;;
11139;SDS011;5624;49.388;11.350;2022-11-15T01:24:44;14.00;;;9.27;;
11139;SDS011;5624;49.388;11.350;2022-11-15T01:27:10;9.90;;;7.17;;
11139;SDS011;5624;49.388;11.350;2022-11-15T01:29:35;10.07;;;7.23;;
11139;SDS011;5624;49.388;11.350;2022-11-15T01:32:01;8.20;;;6.70;;
11139;SDS011;5624;49.388;11.350;2022-11-15T01:34:27;10.27;;;7.33;;
11139;SDS011;5624;49.388;11.350;2022-11-15T01:36:52;8.50;;;6.50;;
11139;SDS011;5624;49.388;11.350;2022-11-15T01:39:18;10.13;;;6.70;;
11139;SDS011;5624;49.388;11.350;2022-11-15T01:41:44;7.70;;;5.53;;
11139;SDS011;5624;49.388;11.350;2022-11-15T01:46:56;7.53;;;5.63;;
11139;SDS011;5624;49.388;11.350;2022-11-15T01:49:24;8.23;;;5.90;;
11139;SDS011;5624;49.388;11.350;2022-11-15T01:51:52;7.83;;;5.67;;
11139;SDS011;5624;49.388;11.350;2022-11-15T01:54:19;7.43;;;5.47;;
11139;SDS011;5624;49.388;11.350;2022-11-15T01:56:47;7.53;;;6.17;;
11139;SDS011;5624;49.388;11.350;2022-11-15T01:59:20;7.23;;;5.27;;
11139;SDS011;5624;49.388;11.350;2022-11-15T02:01:46;8.53;;;6.00;;
11139;SDS011;5624;49.388;11.350;2022-11-15T02:04:13;7.67;;;5.30;;
11139;SDS011;5624;49.388;11.350;2022-11-15T02:06:42;8.47;;;5.60;;
11139;SDS011;5624;49.388;11.350;2022-11-15T02:09:09;9.10;;;5.63;;
11139;SDS011;5624;49.388;11.350;2022-11-15T02:11:36;8.83;;;5.80;;
11139;SDS011;5624;49.388;11.350;2022-11-15T02:14:02;7.57;;;5.67;;
11139;SDS011;5624;49.388;11.350;2022-11-15T02:16:37;8.13;;;5.40;;
11139;SDS011;5624;49.388;11.350;2022-11-15T02:19:15;8.60;;;5.50;;
11139;SDS011;5624;49.388;11.350;2022-11-15T02:21:49;8.10;;;5.53;;
11139;SDS011;5624;49.388;11.350;2022-11-15T02:27:39;9.50;;;5.90;;
11139;SDS011;5624;49.388;11.350;2022-11-15T02:30:34;7.07;;;5.20;;
11139;SDS011;5624;49.388;11.350;2022-11-15T02:35:54;6.73;;;5.07;;
11139;SDS011;5624;49.388;11.350;2022-11-15T02:41:27;6.73;;;4.93;;
11139;SDS011;5624;49.388;11.350;2022-11-15T02:44:02;6.27;;;4.53;;
11139;SDS011;5624;49.388;11.350;2022-11-15T02:46:36;7.90;;;5.23;;
11139;SDS011;5624;49.388;11.350;2022-11-15T02:49:22;8.10;;;5.70;;
11139;SDS011;5624;49.388;11.350;2022-11-15T02:51:52;7.27;;;5.70;;
11139;SDS011;5624;49.388;11.350;2022-11-15T02:54:21;7.70;;;5.30;;
11139;SDS011;5624;49.388;11.350;2022-11-15T02:56:50;6.03;;;4.53;;
11139;SDS011;5624;49.388;11.350;2022-11-15T02:59:23;6.70;;;4.53;;
11139;SDS011;5624;49.388;11.350;2022-11-15T03:05:04;6.03;;;4.17;;
11139;SDS011;5624;49.388;11.350;2022-11-15T03:15:54;6.57;;;4.30;;
11139;SDS011;5624;49.388;11.350;2022-11-15T03:19:11;6.80;;;4.30;;
11139;SDS011;5624;49.388;11.350;2022-11-15T03:21:23;7.07;;;4.43;;
11139;SDS011;5624;49.388;11.350;2022-11-15T03:23:50;5.97;;;4.37;;
11139;SDS011;5624;49.388;11.350;2022-11-15T03:26:18;8.03;;;4.17;;
11139;SDS011;5624;49.388;11.350;2022-11-15T03:28:48;6.10;;;4.10;;
11139;SDS011;5624;49.388;11.350;2022-11-15T03:31:18;6.13;;;3.97;;
11139;SDS011;5624;49.388;11.350;2022-11-15T03:34:04;6.50;;;4.00;;
11139;SDS011;5624;49.388;11.350;2022-11-15T03:36:34;5.70;;;4.10;;
11139;SDS011;5624;49.388;11.350;2022-11-15T03:39:02;6.50;;;4.17;;
11139;SDS011;5624;49.388;11.350;2022-11-15T03:41:39;7.20;;;3.97;;
11139;SDS011;5624;49.388;11.350;2022-11-15T03:49:32;6.37;;;3.63;;
11139;SDS011;5624;49.388;11.350;2022-11-15T03:52:00;6.00;;;3.97;;
11139;SDS011;5624;49.388;11.350;2022-11-15T03:54:27;6.77;;;3.70;;
11139;SDS011;5624;49.388;11.350;2022-11-15T03:56:53;6.53;;;4.07;;
11139;SDS011;5624;49.388;11.350;2022-11-15T03:59:19;5.60;;;3.93;;
11139;SDS011;5624;49.388;11.350;2022-11-15T04:01:44;5.20;;;3.73;;
11139;SDS011;5624;49.388;11.350;2022-11-15T04:04:10;5.50;;;3.50;;
11139;SDS011;5624;49.388;11.350;2022-11-15T04:06:36;6.30;;;3.83;;
11139;SDS011;5624;49.388;11.350;2022-11-15T04:09:01;5.37;;;3.37;;
11139;SDS011;5624;49.388;11.350;2022-11-15T04:11:27;6.67;;;4.30;;
11139;SDS011;5624;49.388;11.350;2022-11-15T04:13:53;5.60;;;3.70;;
11139;SDS011;5624;49.388;11.350;2022-11-15T04:16:18;5.53;;;3.40;;
11139;SDS011;5624;49.388;11.350;2022-11-15T04:18:44;4.43;;;3.67;;
11139;SDS011;5624;49.388;11.350;2022-11-15T04:21:09;4.93;;;3.43;;
11139;SDS011;5624;49.388;11.350;2022-11-15T04:23:53;6.23;;;3.40;;
11139;SDS011;5624;49.388;11.350;2022-11-15T04:26:37;5.33;;;3.50;;
11139;SDS011;5624;49.388;11.350;2022-11-15T04:29:03;5.60;;;3.67;;
11139;SDS011;5624;49.388;11.350;2022-11-15T04:31:47;4.87;;;3.33;;
11139;SDS011;5624;49.388;11.350;2022-11-15T04:34:13;5.30;;;3.33;;
11139;SDS011;5624;49.388;11.350;2022-11-15T04:36:38;6.47;;;3.90;;
11139;SDS011;5624;49.388;11.350;2022-11-15T04:39:22;5.40;;;3.70;;
11139;SDS011;5624;49.388;11.350;2022-11-15T04:41:48;5.47;;;3.93;;
11139;SDS011;5624;49.388;11.350;2022-11-15T04:44:14;5.73;;;3.63;;
11139;SDS011;5624;49.388;11.350;2022-11-15T04:46:39;5.07;;;3.70;;
11139;SDS011;5624;49.388;11.350;2022-11-15T04:49:05;5.63;;;4.10;;
11139;SDS011;5624;49.388;11.350;2022-11-15T04:51:30;6.07;;;4.00;;
11139;SDS011;5624;49.388;11.350;2022-11-15T04:53:56;5.20;;;3.83;;
11139;SDS011;5624;49.388;11.350;2022-11-15T04:56:21;6.87;;;4.40;;
11139;SDS011;5624;49.388;11.350;2022-11-15T04:58:50;5.57;;;3.77;;
11139;SDS011;5624;49.388;11.350;2022-11-15T05:01:16;6.07;;;3.93;;
11139;SDS011;5624;49.388;11.350;2022-11-15T05:03:42;5.70;;;3.50;;
11139;SDS011;5624;49.388;11.350;2022-11-15T05:06:26;6.87;;;4.47;;
11139;SDS011;5624;49.388;11.350;2022-11-15T05:08:52;6.60;;;4.33;;
11139;SDS011;5624;49.388;11.350;2022-11-15T05:11:18;5.80;;;4.57;;
11139;SDS011;5624;49.388;11.350;2022-11-15T05:13:43;6.20;;;4.30;;
11139;SDS011;5624;49.388;11.350;2022-11-15T05:16:09;5.13;;;3.47;;
11139;SDS011;5624;49.388;11.350;2022-11-15T05:18:34;7.63;;;4.80;;
11139;SDS011;5624;49.388;11.350;2022-11-15T05:21:04;4.73;;;3.63;;
11139;SDS011;5624;49.388;11.350;2022-11-15T05:23:30;6.57;;;4.47;;
11139;SDS011;5624;49.388;11.350;2022-11-15T05:25:59;8.07;;;4.13;;
11139;SDS011;5624;49.388;11.350;2022-11-15T05:28:26;6.50;;;4.07;;
11139;SDS011;5624;49.388;11.350;2022-11-15T05:30:52;7.10;;;4.17;;
11139;SDS011;5624;49.388;11.350;2022-11-15T05:33:17;4.90;;;3.70;;
11139;SDS011;5624;49.388;11.350;2022-11-15T05:35:45;4.93;;;3.73;;
11139;SDS011;5624;49.388;11.350;2022-11-15T05:38:15;7.33;;;4.27;;
11139;SDS011;5624;49.388;11.350;2022-11-15T05:40:41;6.07;;;3.70;;
11139;SDS011;5624;49.388;11.350;2022-11-15T05:43:07;5.33;;;4.00;;
11139;SDS011;5624;49.388;11.350;2022-11-15T05:45:34;6.33;;;3.50;;
11139;SDS011;5624;49.388;11.350;2022-11-15T05:48:01;5.80;;;4.27;;
11139;SDS011;5624;49.388;11.350;2022-11-15T05:50:32;8.93;;;4.70;;
11139;SDS011;5624;49.388;11.350;2022-11-15T05:52:59;4.47;;;3.23;;
11139;SDS011;5624;49.388;11.350;2022-11-15T05:55:26;6.87;;;4.03;;
11139;SDS011;5624;49.388;11.350;2022-11-15T05:57:51;5.63;;;3.90;;
11139;SDS011;5624;49.388;11.350;2022-11-15T06:00:17;6.23;;;4.30;;
11139;SDS011;5624;49.388;11.350;2022-11-15T06:02:43;5.23;;;3.83;;
11139;SDS011;5624;49.388;11.350;2022-11-15T06:05:08;6.87;;;4.27;;
11139;SDS011;5624;49.388;11.350;2022-11-15T06:07:34;8.23;;;4.43;;
11139;SDS011;5624;49.388;11.350;2022-11-15T06:10:00;6.23;;;4.40;;
11139;SDS011;5624;49.388;11.350;2022-11-15T06:12:26;7.53;;;4.43;;
11139;SDS011;5624;49.388;11.350;2022-11-15T06:14:51;7.27;;;4.67;;
11139;SDS011;5624;49.388;11.350;2022-11-15T06:17:17;7.03;;;4.23;;
11139;SDS011;5624;49.388;11.350;2022-11-15T06:19:43;6.67;;;4.83;;
11139;SDS011;5624;49.388;11.350;2022-11-15T06:22:09;8.20;;;5.43;;
11139;SDS011;5624;49.388;11.350;2022-11-15T06:24:35;10.00;;;5.53;;
11139;SDS011;5624;49.388;11.350;2022-11-15T06:27:00;8.90;;;5.13;;
11139;SDS011;5624;49.388;11.350;2022-11-15T06:29:26;8.60;;;6.10;;
11139;SDS011;5624;49.388;11.350;2022-11-15T06:31:51;11.70;;;6.30;;
11139;SDS011;5624;49.388;11.350;2022-11-15T06:34:18;10.00;;;6.17;;
11139;SDS011;5624;49.388;11.350;2022-11-15T06:36:43;13.40;;;7.83;;
11139;SDS011;5624;49.388;11.350;2022-11-15T06:39:09;11.33;;;7.60;;
11139;SDS011;5624;49.388;11.350;2022-11-15T06:41:34;12.77;;;7.43;;
11139;SDS011;5624;49.388;11.350;2022-11-15T06:44:00;11.00;;;7.00;;
11139;SDS011;5624;49.388;11.350;2022-11-15T06:46:26;14.57;;;8.50;;
11139;SDS011;5624;49.388;11.350;2022-11-15T06:48:52;14.40;;;8.23;;
11139;SDS011;5624;49.388;11.350;2022-11-15T06:51:18;14.97;;;8.43;;
11139;SDS011;5624;49.388;11.350;2022-11-15T06:53:43;12.87;;;8.93;;
11139;SDS011;5624;49.388;11.350;2022-11-15T06:56:09;24.67;;;13.73;;
11139;SDS011;5624;49.388;11.350;2022-11-15T06:58:35;11.67;;;8.03;;
11139;SDS011;5624;49.388;11.350;2022-11-15T07:01:03;9.70;;;6.17;;
11139;SDS011;5624;49.388;11.350;2022-11-15T07:03:35;10.43;;;6.03;;
11139;SDS011;5624;49.388;11.350;2022-11-15T07:06:03;9.67;;;6.50;;
11139;SDS011;5624;49.388;11.350;2022-11-15T07:08:29;9.57;;;5.97;;
11139;SDS011;5624;49.388;11.350;2022-11-15T07:11:02;7.83;;;6.23;;
11139;SDS011;5624;49.388;11.350;2022-11-15T07:13:32;8.23;;;5.77;;
11139;SDS011;5624;49.388;11.350;2022-11-15T07:16:05;8.30;;;5.80;;
11139;SDS011;5624;49.388;11.350;2022-11-15T07:18:34;10.40;;;6.50;;
11139;SDS011;5624;49.388;11.350;2022-11-15T07:21:01;9.43;;;6.23;;
11139;SDS011;5624;49.388;11.350;2022-11-15T07:23:28;8.63;;;6.40;;
11139;SDS011;5624;49.388;11.350;2022-11-15T07:25:53;7.73;;;5.77;;
11139;SDS011;5624;49.388;11.350;2022-11-15T07:28:22;8.20;;;5.90;;
11139;SDS011;5624;49.388;11.350;2022-11-15T07:30:47;9.87;;;6.37;;
11139;SDS011;5624;49.388;11.350;2022-11-15T07:33:13;9.97;;;5.60;;
11139;SDS011;5624;49.388;11.350;2022-11-15T07:35:39;8.67;;;6.53;;
11139;SDS011;5624;49.388;11.350;2022-11-15T07:38:04;9.63;;;5.30;;
11139;SDS011;5624;49.388;11.350;2022-11-15T07:40:30;11.27;;;7.07;;
11139;SDS011;5624;49.388;11.350;2022-11-15T07:43:03;9.40;;;6.57;;
11139;SDS011;5624;49.388;11.350;2022-11-15T07:45:30;9.23;;;6.80;;
11139;SDS011;5624;49.388;11.350;2022-11-15T07:47:58;11.20;;;7.03;;
11139;SDS011;5624;49.388;11.350;2022-11-15T07:50:25;10.20;;;7.40;;
11139;SDS011;5624;49.388;11.350;2022-11-15T07:52:55;10.97;;;7.20;;
11139;SDS011;5624;49.388;11.350;2022-11-15T07:55:22;12.40;;;7.00;;
11139;SDS011;5624;49.388;11.350;2022-11-15T07:57:48;9.90;;;6.73;;
11139;SDS011;5624;49.388;11.350;2022-11-15T08:00:14;12.67;;;7.90;;
11139;SDS011;5624;49.388;11.350;2022-11-15T08:02:41;12.73;;;8.03;;
11139;SDS011;5624;49.388;11.350;2022-11-15T08:05:07;12.10;;;7.63;;
11139;SDS011;5624;49.388;11.350;2022-11-15T08:07:33;9.30;;;6.93;;
11139;SDS011;5624;49.388;11.350;2022-11-15T08:09:58;9.03;;;7.17;;
11139;SDS011;5624;49.388;11.350;2022-11-15T08:12:26;10.47;;;7.00;;
11139;SDS011;5624;49.388;11.350;2022-11-15T08:14:53;8.67;;;6.73;;
11139;SDS011;5624;49.388;11.350;2022-11-15T08:17:20;9.53;;;6.83;;
11139;SDS011;5624;49.388;11.350;2022-11-15T08:19:45;8.40;;;6.73;;
11139;SDS011;5624;49.388;11.350;2022-11-15T08:22:11;9.17;;;7.13;;
11139;SDS011;5624;49.388;11.350;2022-11-15T08:24:37;7.47;;;6.57;;
11139;SDS011;5624;49.388;11.350;2022-11-15T08:27:02;7.70;;;6.40;;
11139;SDS011;5624;49.388;11.350;2022-11-15T08:29:28;9.03;;;6.23;;
11139;SDS011;5624;49.388;11.350;2022-11-15T08:31:54;8.70;;;6.47;;
11139;SDS011;5624;49.388;11.350;2022-11-15T08:34:21;7.50;;;5.63;;
11139;SDS011;5624;49.388;11.350;2022-11-15T08:36:47;8.77;;;6.50;;
11139;SDS011;5624;49.388;11.350;2022-11-15T08:39:12;7.70;;;6.17;;
11139;SDS011;5624;49.388;11.350;2022-11-15T08:41:38;8.87;;;6.67;;
11139;SDS011;5624;49.388;11.350;2022-11-15T08:44:04;9.93;;;7.10;;
11139;SDS011;5624;49.388;11.350;2022-11-15T08:46:30;11.63;;;8.07;;
11139;SDS011;5624;49.388;11.350;2022-11-15T08:48:56;12.83;;;6.70;;
11139;SDS011;5624;49.388;11.350;2022-11-15T08:51:21;8.33;;;6.13;;
11139;SDS011;5624;49.388;11.350;2022-11-15T08:53:47;7.33;;;6.50;;
11139;SDS011;5624;49.388;11.350;2022-11-15T08:56:13;10.03;;;7.00;;
11139;SDS011;5624;49.388;11.350;2022-11-15T08:58:39;11.13;;;7.00;;
11139;SDS011;5624;49.388;11.350;2022-11-15T09:01:06;10.73;;;7.17;;
11139;SDS011;5624;49.388;11.350;2022-11-15T09:03:39;8.80;;;6.20;;
11139;SDS011;5624;49.388;11.350;2022-11-15T09:06:06;8.47;;;6.63;;
11139;SDS011;5624;49.388;11.350;2022-11-15T09:08:31;10.73;;;6.13;;
11139;SDS011;5624;49.388;11.350;2022-11-15T09:10:57;8.23;;;6.50;;
11139;SDS011;5624;49.388;11.350;2022-11-15T09:13:23;8.20;;;5.67;;
11139;SDS011;5624;49.388;11.350;2022-11-15T09:15:48;7.47;;;5.13;;
11139;SDS011;5624;49.388;11.350;2022-11-15T09:18:14;8.57;;;5.47;;
11139;SDS011;5624;49.388;11.350;2022-11-15T09:20:40;7.27;;;5.87;;
11139;SDS011;5624;49.388;11.350;2022-11-15T09:23:05;7.47;;;5.40;;
11139;SDS011;5624;49.388;11.350;2022-11-15T09:25:32;7.13;;;5.77;;
11139;SDS011;5624;49.388;11.350;2022-11-15T09:27:58;7.30;;;5.57;;
11139;SDS011;5624;49.388;11.350;2022-11-15T09:30:24;6.47;;;5.17;;
11139;SDS011;5624;49.388;11.350;2022-11-15T09:32:50;7.10;;;4.83;;
11139;SDS011;5624;49.388;11.350;2022-11-15T09:35:16;7.43;;;5.13;;
11139;SDS011;5624;49.388;11.350;2022-11-15T09:37:42;5.87;;;4.50;;
11139;SDS011;5624;49.388;11.350;2022-11-15T09:40:11;6.67;;;5.23;;
11139;SDS011;5624;49.388;11.350;2022-11-15T09:42:45;7.20;;;5.27;;
11139;SDS011;5624;49.388;11.350;2022-11-15T09:45:31;6.10;;;4.60;;
11139;SDS011;5624;49.388;11.350;2022-11-15T09:50:41;5.73;;;4.40;;
11139;SDS011;5624;49.388;11.350;2022-11-15T09:56:08;4.70;;;4.10;;
11139;SDS011;5624;49.388;11.350;2022-11-15T10:04:37;5.73;;;4.43;;
11139;SDS011;5624;49.388;11.350;2022-11-15T10:07:14;5.97;;;4.20;;
11139;SDS011;5624;49.388;11.350;2022-11-15T10:10:02;4.73;;;3.93;;
11139;SDS011;5624;49.388;11.350;2022-11-15T10:12:49;6.20;;;4.13;;
11139;SDS011;5624;49.388;11.350;2022-11-15T10:15:17;5.23;;;3.63;;
11139;SDS011;5624;49.388;11.350;2022-11-15T10:20:26;4.47;;;3.47;;
11139;SDS011;5624;49.388;11.350;2022-11-15T10:22:55;4.80;;;3.93;;
11139;SDS011;5624;49.388;11.350;2022-11-15T10:25:25;5.00;;;3.73;;
11139;SDS011;5624;49.388;11.350;2022-11-15T10:28:09;6.47;;;3.60;;
11139;SDS011;5624;49.388;11.350;2022-11-15T10:30:40;5.17;;;3.60;;
11139;SDS011;5624;49.388;11.350;2022-11-15T10:43:45;4.38;;;3.33;;
11139;SDS011;5624;49.388;11.350;2022-11-15T10:46:42;5.18;;;3.67;;
11139;SDS011;5624;49.388;11.350;2022-11-15T10:51:49;4.65;;;2.92;;
11139;SDS011;5624;49.388;11.350;2022-11-15T10:54:29;6.18;;;3.13;;
11139;SDS011;5624;49.388;11.350;2022-11-15T10:57:21;5.88;;;3.00;;
11139;SDS011;5624;49.388;11.350;2022-11-15T10:59:54;4.75;;;3.03;;
11139;SDS011;5624;49.388;11.350;2022-11-15T11:04:57;3.80;;;2.88;;
11139;SDS011;5624;49.388;11.350;2022-11-15T11:07:25;5.25;;;3.05;;
11139;SDS011;5624;49.388;11.350;2022-11-15T11:10:00;6.65;;;3.08;;
11139;SDS011;5624;49.388;11.350;2022-11-15T11:12:46;4.30;;;3.30;;
11139;SDS011;5624;49.388;11.350;2022-11-15T11:15:13;4.47;;;3.20;;
11139;SDS011;5624;49.388;11.350;2022-11-15T11:17:49;4.63;;;3.17;;
11139;SDS011;5624;49.388;11.350;2022-11-15T11:20:45;5.90;;;3.70;;
11139;SDS011;5624;49.388;11.350;2022-11-15T11:36:54;4.97;;;3.08;;
11139;SDS011;5624;49.388;11.350;2022-11-15T11:50:39;5.33;;;3.17;;
11139;SDS011;5624;49.388;11.350;2022-11-15T11:56:04;5.57;;;3.67;;
11139;SDS011;5624;49.388;11.350;2022-11-15T11:58:42;4.00;;;2.97;;
11139;SDS011;5624;49.388;11.350;2022-11-15T12:03:47;4.73;;;2.93;;
11139;SDS011;5624;49.388;11.350;2022-11-15T12:09:19;5.03;;;3.42;;
11139;SDS011;5624;49.388;11.350;2022-11-15T12:12:25;3.95;;;2.78;;
11139;SDS011;5624;49.388;11.350;2022-11-15T12:17:35;3.40;;;2.95;;
11139;SDS011;5624;49.388;11.350;2022-11-15T12:20:04;6.93;;;2.90;;
11139;SDS011;5624;49.388;11.350;2022-11-15T12:22:49;3.87;;;2.63;;
11139;SDS011;5624;49.388;11.350;2022-11-15T12:25:31;5.60;;;2.92;;
11139;SDS011;5624;49.388;11.350;2022-11-15T12:30:46;3.38;;;2.53;;
11139;SDS011;5624;49.388;11.350;2022-11-15T12:33:30;3.90;;;2.60;;
11139;SDS011;5624;49.388;11.350;2022-11-15T12:35:59;3.72;;;2.63;;
11139;SDS011;5624;49.388;11.350;2022-11-15T12:41:36;5.20;;;3.00;;
11139;SDS011;5624;49.388;11.350;2022-11-15T12:44:16;4.40;;;3.05;;
11139;SDS011;5624;49.388;11.350;2022-11-15T13:17:47;4.57;;;2.90;;
11139;SDS011;5624;49.388;11.350;2022-11-15T13:22:41;7.28;;;4.15;;
11139;SDS011;5624;49.388;11.350;2022-11-15T13:27:54;6.03;;;3.47;;
11139;SDS011;5624;49.388;11.350;2022-11-15T13:30:23;10.82;;;7.28;;
11139;SDS011;5624;49.388;11.350;2022-11-15T13:32:50;8.20;;;4.70;;
11139;SDS011;5624;49.388;11.350;2022-11-15T13:35:21;4.55;;;3.00;;
11139;SDS011;5624;49.388;11.350;2022-11-15T13:37:51;5.30;;;3.08;;
11139;SDS011;5624;49.388;11.350;2022-11-15T13:42:49;4.60;;;2.83;;
11139;SDS011;5624;49.388;11.350;2022-11-15T13:45:17;4.38;;;2.92;;
11139;SDS011;5624;49.388;11.350;2022-11-15T13:47:44;5.70;;;2.75;;
11139;SDS011;5624;49.388;11.350;2022-11-15T13:50:10;5.25;;;2.92;;
11139;SDS011;5624;49.388;11.350;2022-11-15T13:52:37;3.63;;;2.85;;
11139;SDS011;5624;49.388;11.350;2022-11-15T13:55:21;6.68;;;3.72;;
11139;SDS011;5624;49.388;11.350;2022-11-15T13:57:49;5.20;;;2.95;;
11139;SDS011;5624;49.388;11.350;2022-11-15T14:06:06;4.85;;;2.88;;
11139;SDS011;5624;49.388;11.350;2022-11-15T14:08:33;6.22;;;3.10;;
11139;SDS011;5624;49.388;11.350;2022-11-15T14:13:39;4.13;;;2.80;;
11139;SDS011;5624;49.388;11.350;2022-11-15T14:16:16;3.90;;;2.87;;
11139;SDS011;5624;49.388;11.350;2022-11-15T14:18:48;5.28;;;3.28;;
11139;SDS011;5624;49.388;11.350;2022-11-15T14:21:15;3.93;;;2.53;;
11139;SDS011;5624;49.388;11.350;2022-11-15T14:23:42;5.43;;;3.10;;
11139;SDS011;5624;49.388;11.350;2022-11-15T14:26:26;5.30;;;3.03;;
11139;SDS011;5624;49.388;11.350;2022-11-15T14:28:54;5.47;;;2.77;;
11139;SDS011;5624;49.388;11.350;2022-11-15T14:31:19;4.83;;;3.20;;
11139;SDS011;5624;49.388;11.350;2022-11-15T14:33:46;5.13;;;2.83;;
11139;SDS011;5624;49.388;11.350;2022-11-15T14:38:38;5.23;;;3.20;;
11139;SDS011;5624;49.388;11.350;2022-11-15T14:41:04;5.03;;;2.80;;
11139;SDS011;5624;49.388;11.350;2022-11-15T14:43:30;5.50;;;2.97;;
11139;SDS011;5624;49.388;11.350;2022-11-15T14:45:56;7.00;;;3.10;;
11139;SDS011;5624;49.388;11.350;2022-11-15T14:48:22;5.90;;;3.37;;
11139;SDS011;5624;49.388;11.350;2022-11-15T14:50:48;9.40;;;4.30;;
11139;SDS011;5624;49.388;11.350;2022-11-15T14:53:14;6.20;;;3.50;;
11139;SDS011;5624;49.388;11.350;2022-11-15T14:55:41;5.53;;;3.50;;
11139;SDS011;5624;49.388;11.350;2022-11-15T14:58:07;5.37;;;3.50;;
11139;SDS011;5624;49.388;11.350;2022-11-15T15:00:34;6.07;;;3.30;;
11139;SDS011;5624;49.388;11.350;2022-11-15T15:03:01;6.10;;;3.23;;
11139;SDS011;5624;49.388;11.350;2022-11-15T15:08:04;20.30;;;14.47;;
11139;SDS011;5624;49.388;11.350;2022-11-15T15:10:31;19.60;;;15.83;;
11139;SDS011;5624;49.388;11.350;2022-11-15T15:13:25;11.30;;;8.10;;
11139;SDS011;5624;49.388;11.350;2022-11-15T15:15:51;7.50;;;6.30;;
11139;SDS011;5624;49.388;11.350;2022-11-15T15:18:17;22.40;;;14.67;;
11139;SDS011;5624;49.388;11.350;2022-11-15T15:20:44;38.37;;;27.27;;
11139;SDS011;5624;49.388;11.350;2022-11-15T15:23:16;31.77;;;23.70;;
11139;SDS011;5624;49.388;11.350;2022-11-15T15:25:43;24.97;;;18.07;;
11139;SDS011;5624;49.388;11.350;2022-11-15T15:28:10;8.20;;;5.43;;
11139;SDS011;5624;49.388;11.350;2022-11-15T15:30:36;9.50;;;4.20;;
11139;SDS011;5624;49.388;11.350;2022-11-15T15:33:02;8.33;;;5.47;;
11139;SDS011;5624;49.388;11.350;2022-11-15T15:35:29;13.13;;;7.03;;
11139;SDS011;5624;49.388;11.350;2022-11-15T15:37:56;21.97;;;13.13;;
11139;SDS011;5624;49.388;11.350;2022-11-15T15:40:23;20.00;;;12.53;;
11139;SDS011;5624;49.388;11.350;2022-11-15T15:42:49;14.27;;;8.00;;
11139;SDS011;5624;49.388;11.350;2022-11-15T15:45:16;18.77;;;11.07;;
11139;SDS011;5624;49.388;11.350;2022-11-15T15:47:42;33.10;;;20.57;;
11139;SDS011;5624;49.388;11.350;2022-11-15T15:52:49;28.40;;;17.50;;
11139;SDS011;5624;49.388;11.350;2022-11-15T15:55:16;28.30;;;16.97;;
11139;SDS011;5624;49.388;11.350;2022-11-15T15:57:42;20.00;;;12.63;;
11139;SDS011;5624;49.388;11.350;2022-11-15T16:00:08;20.90;;;12.60;;
11139;SDS011;5624;49.388;11.350;2022-11-15T16:02:35;16.47;;;11.50;;
11139;SDS011;5624;49.388;11.350;2022-11-15T16:05:01;15.73;;;12.10;;
11139;SDS011;5624;49.388;11.350;2022-11-15T16:07:26;11.63;;;7.10;;
11139;SDS011;5624;49.388;11.350;2022-11-15T16:09:54;8.80;;;6.90;;
11139;SDS011;5624;49.388;11.350;2022-11-15T16:12:30;10.93;;;7.73;;
11139;SDS011;5624;49.388;11.350;2022-11-15T16:14:59;10.37;;;7.50;;
11139;SDS011;5624;49.388;11.350;2022-11-15T16:17:27;9.97;;;7.17;;
11139;SDS011;5624;49.388;11.350;2022-11-15T16:19:55;7.63;;;5.97;;
11139;SDS011;5624;49.388;11.350;2022-11-15T16:22:21;6.63;;;5.27;;
11139;SDS011;5624;49.388;11.350;2022-11-15T16:24:47;10.20;;;6.70;;
11139;SDS011;5624;49.388;11.350;2022-11-15T16:27:16;10.57;;;7.23;;
11139;SDS011;5624;49.388;11.350;2022-11-15T16:29:44;14.13;;;7.43;;
11139;SDS011;5624;49.388;11.350;2022-11-15T16:32:11;10.53;;;7.40;;
11139;SDS011;5624;49.388;11.350;2022-11-15T16:34:37;12.70;;;7.47;;
11139;SDS011;5624;49.388;11.350;2022-11-15T16:37:03;13.93;;;9.07;;
11139;SDS011;5624;49.388;11.350;2022-11-15T16:39:29;15.63;;;7.57;;
11139;SDS011;5624;49.388;11.350;2022-11-15T16:41:56;12.53;;;7.60;;
11139;SDS011;5624;49.388;11.350;2022-11-15T16:44:22;11.13;;;7.60;;
11139;SDS011;5624;49.388;11.350;2022-11-15T16:46:49;15.30;;;7.37;;
11139;SDS011;5624;49.388;11.350;2022-11-15T16:49:18;15.27;;;8.30;;
11139;SDS011;5624;49.388;11.350;2022-11-15T16:51:45;9.87;;;6.80;;
11139;SDS011;5624;49.388;11.350;2022-11-15T16:54:14;10.67;;;7.37;;
11139;SDS011;5624;49.388;11.350;2022-11-15T16:56:40;9.43;;;6.87;;
11139;SDS011;5624;49.388;11.350;2022-11-15T16:59:08;9.53;;;6.83;;
11139;SDS011;5624;49.388;11.350;2022-11-15T17:01:38;10.47;;;6.57;;
11139;SDS011;5624;49.388;11.350;2022-11-15T17:04:11;10.13;;;6.73;;
11139;SDS011;5624;49.388;11.350;2022-11-15T17:06:38;10.73;;;6.50;;
11139;SDS011;5624;49.388;11.350;2022-11-15T17:09:04;11.07;;;8.10;;
11139;SDS011;5624;49.388;11.350;2022-11-15T17:11:30;10.27;;;7.57;;
11139;SDS011;5624;49.388;11.350;2022-11-15T17:13:56;12.03;;;7.73;;
11139;SDS011;5624;49.388;11.350;2022-11-15T17:16:23;10.10;;;7.57;;
11139;SDS011;5624;49.388;11.350;2022-11-15T17:18:49;11.63;;;8.47;;
11139;SDS011;5624;49.388;11.350;2022-11-15T17:21:16;10.93;;;7.77;;
11139;SDS011;5624;49.388;11.350;2022-11-15T17:23:44;10.73;;;6.80;;
11139;SDS011;5624;49.388;11.350;2022-11-15T17:26:10;10.37;;;7.17;;
11139;SDS011;5624;49.388;11.350;2022-11-15T17:28:38;11.97;;;7.40;;